Time;durP1;ratioP1;P1;durP2;ratioP2;P2;SDS_P1;SDS_P2;PMS_P1;PMS_P2;Temp;Humidity;BMP_temperature;BMP_pressure;BME280_temperature;BME280_humidity;BME280_pressure;Samples;Min_cycle;Max_cycle;Signal;HPM_P1;HPM_P2
2020/12/23 00:02:03;;;;;;;13.68;6.67;;;;;;;2.52;82.49;101914.48;1773808;80;21122;-56
2020/12/23 00:04:31;;;;;;;10.68;5.53;;;;;;;2.54;82.50;101911.46;1773786;80;21182;-57
2020/12/23 00:06:58;;;;;;;11.73;5.95;;;;;;;2.57;82.34;101917.22;1773827;80;21079;-57
2020/12/23 00:09:26;;;;;;;13.22;6.37;;;;;;;2.56;81.81;101911.05;1773829;80;21079;-57
2020/12/23 00:11:54;;;;;;;11.20;5.45;;;;;;;2.57;81.49;101905.30;1773809;80;21445;-57
2020/12/23 00:14:22;;;;;;;13.70;6.33;;;;;;;2.58;81.65;101906.67;1773793;80;21135;-56
2020/12/23 00:16:49;;;;;;;11.33;6.45;;;;;;;2.60;81.71;101911.09;1773819;80;21173;-57
2020/12/23 00:19:17;;;;;;;11.70;6.60;;;;;;;2.63;81.64;101912.47;1771987;80;21059;-57
2020/12/23 00:21:44;;;;;;;12.05;6.30;;;;;;;2.65;81.47;101912.97;1765062;81;21111;-57
2020/12/23 00:24:12;;;;;;;11.83;6.20;;;;;;;2.66;81.58;101911.19;1765122;81;21676;-57
2020/12/23 00:26:40;;;;;;;11.50;6.17;;;;;;;2.66;81.64;101910.77;1764984;81;21083;-56
2020/12/23 00:29:08;;;;;;;11.78;6.33;;;;;;;2.66;81.53;101901.92;1733402;81;21429;-56
2020/12/23 00:31:35;;;;;;;11.63;6.47;;;;;;;2.68;81.50;101898.45;1765183;81;22394;-56
2020/12/23 00:34:03;;;;;;;16.00;7.00;;;;;;;2.71;81.51;101908.17;1765273;81;21182;-57
2020/12/23 00:36:30;;;;;;;11.63;6.00;;;;;;;2.74;81.44;101901.60;1771658;79;21215;-56
2020/12/23 00:38:58;;;;;;;9.65;6.00;;;;;;;2.76;81.21;101906.94;1796518;79;21157;-56
2020/12/23 00:41:26;;;;;;;9.38;5.70;;;;;;;2.76;80.71;101906.48;1796553;79;21106;-56
2020/12/23 00:43:53;;;;;;;12.82;5.85;;;;;;;2.77;80.61;101893.73;1796532;79;21126;-55
2020/12/23 00:46:20;;;;;;;9.63;5.80;;;;;;;2.78;80.49;101900.81;1796492;79;21141;-57
2020/12/23 00:48:48;;;;;;;10.53;5.72;;;;;;;2.80;80.55;101905.69;1796528;79;21371;-56
2020/12/23 00:51:15;;;;;;;12.03;6.50;;;;;;;2.80;80.69;101900.39;1796499;79;21026;-56
2020/12/23 00:53:44;;;;;;;9.18;5.47;;;;;;;2.83;80.67;101903.09;1796454;79;21101;-57
2020/12/23 00:56:12;;;;;;;10.78;5.87;;;;;;;2.84;80.65;101903.55;1796561;79;21109;-56
2020/12/23 00:58:40;;;;;;;10.78;6.15;;;;;;;2.85;80.45;101898.70;1796460;79;21054;-56
2020/12/23 01:01:07;;;;;;;9.58;5.70;;;;;;;2.86;80.42;101907.11;1796572;79;21330;-57
2020/12/23 01:03:37;;;;;;;8.60;4.95;;;;;;;2.86;80.24;101901.80;1793980;79;21102;-56
2020/12/23 01:06:09;;;;;;;12.20;5.90;;;;;;;2.88;79.96;101902.27;1796599;79;20987;-57
2020/12/23 01:08:37;;;;;;;11.03;5.50;;;;;;;2.91;80.03;101910.25;1796495;79;21144;-56
2020/12/23 01:11:08;;;;;;;10.50;6.17;;;;;;;2.95;80.10;101905.45;1796479;79;21110;-57
2020/12/23 01:13:36;;;;;;;8.23;4.87;;;;;;;2.95;80.03;101893.53;1796728;79;21436;-56
2020/12/23 01:16:04;;;;;;;10.05;5.10;;;;;;;2.96;80.05;101897.96;1796507;79;21203;-56
2020/12/23 01:18:31;;;;;;;12.93;6.00;;;;;;;2.97;80.00;101889.14;1796505;79;21184;-57
2020/12/23 01:21:02;;;;;;;9.78;5.33;;;;;;;2.98;80.14;101890.92;1796343;79;21169;-56
2020/12/23 01:23:30;;;;;;;10.00;5.35;;;;;;;2.97;80.04;101893.11;1796593;79;21053;-57
2020/12/23 01:25:57;;;;;;;10.25;5.50;;;;;;;2.98;79.92;101888.27;1796486;79;21193;-55
2020/12/23 01:28:24;;;;;;;10.08;6.10;;;;;;;3.00;79.88;101885.24;1796500;79;21101;-57
2020/12/23 01:30:52;;;;;;;9.40;5.47;;;;;;;3.02;79.93;101884.83;1796466;79;21113;-56
2020/12/23 01:33:20;;;;;;;8.30;5.30;;;;;;;3.03;79.91;101887.02;1796581;79;21050;-56
2020/12/23 01:35:47;;;;;;;11.05;6.03;;;;;;;3.03;79.84;101878.66;1796476;79;21053;-57
2020/12/23 01:38:15;;;;;;;9.30;5.42;;;;;;;3.03;79.85;101872.03;1767053;79;21700;-56
2020/12/23 01:40:42;;;;;;;10.28;5.42;;;;;;;3.04;79.70;101869.84;1764883;81;21118;-56
2020/12/23 01:43:10;;;;;;;9.45;5.42;;;;;;;3.04;79.64;101864.53;1764973;81;21082;-56
2020/12/23 01:45:38;;;;;;;11.63;5.37;;;;;;;3.05;79.68;101872.94;1764879;81;21492;-56
2020/12/23 01:48:20;;;;;;;8.95;5.20;;;;;;;3.07;79.59;101870.30;1764912;81;21115;-57
2020/12/23 01:50:49;;;;;;;14.05;5.78;;;;;;;3.07;79.67;101861.02;1764978;81;21194;-56
2020/12/23 01:53:16;;;;;;;9.50;5.40;;;;;;;3.05;79.81;101862.34;1764803;81;21082;-57
2020/12/23 01:55:47;;;;;;;8.78;5.30;;;;;;;3.03;80.09;101858.78;1764983;81;21161;-56
2020/12/23 01:58:15;;;;;;;11.97;5.72;;;;;;;3.02;80.28;101857.00;1764895;81;21142;-56
2020/12/23 02:00:42;;;;;;;10.05;5.37;;;;;;;3.04;80.32;101859.23;1764895;81;21130;-57
2020/12/23 02:03:12;;;;;;;9.18;5.42;;;;;;;3.06;80.19;101854.84;1764904;81;21377;-55
2020/12/23 02:05:41;;;;;;;8.83;5.37;;;;;;;3.08;79.73;101854.84;1764863;81;21078;-57
2020/12/23 02:08:10;;;;;;;11.97;5.15;;;;;;;3.09;79.47;101860.19;1764921;81;21062;-55
2020/12/23 02:10:40;;;;;;;9.85;5.17;;;;;;;3.09;79.25;101853.56;1764951;81;21461;-57
2020/12/23 02:13:09;;;;;;;8.73;5.05;;;;;;;3.08;79.10;101849.55;1765042;81;21579;-57
2020/12/23 02:15:38;;;;;;;10.00;5.00;;;;;;;3.08;79.03;101851.78;1764875;81;22199;-56
2020/12/23 02:18:05;;;;;;;9.98;5.17;;;;;;;3.10;79.08;101854.02;1764887;81;21152;-56
2020/12/23 02:20:33;;;;;;;10.98;6.22;;;;;;;3.12;79.24;101854.92;1764684;81;21146;-56
2020/12/23 02:23:00;;;;;;;8.90;5.50;;;;;;;3.14;79.20;101857.61;1764933;81;21051;-56
2020/12/23 02:25:28;;;;;;;10.43;5.92;;;;;;;3.18;79.39;101851.89;1764903;81;21074;-56
2020/12/23 02:27:56;;;;;;;9.68;5.72;;;;;;;3.19;79.62;101850.60;1764958;81;21411;-56
2020/12/23 02:30:23;;;;;;;9.95;5.60;;;;;;;3.18;79.75;101846.59;1764766;81;21141;-57
2020/12/23 02:32:51;;;;;;;13.05;5.47;;;;;;;3.19;79.82;101856.32;1764966;81;21173;-56
2020/12/23 02:35:19;;;;;;;11.68;5.90;;;;;;;3.20;79.94;101848.83;1764875;81;21090;-57
2020/12/23 02:37:46;;;;;;;18.92;7.08;;;;;;;3.21;80.41;101842.23;1787921;79;21049;-58
2020/12/23 02:40:14;;;;;;;13.80;6.87;;;;;;;3.23;80.88;101843.59;1779374;80;21437;-57
2020/12/23 02:42:43;;;;;;;12.98;7.10;;;;;;;3.23;81.32;101836.52;1779237;80;21195;-57
2020/12/23 02:45:11;;;;;;;17.05;7.53;;;;;;;3.22;81.81;101840.03;1779395;80;21159;-56
2020/12/23 02:47:38;;;;;;;17.05;6.80;;;;;;;3.21;81.92;101833.41;1779313;80;21036;-57
2020/12/23 02:50:06;;;;;;;12.60;6.65;;;;;;;3.19;82.18;101829.81;1779440;80;21056;-57
2020/12/23 02:52:34;;;;;;;13.28;6.30;;;;;;;3.19;82.45;101836.44;1779335;80;21359;-57
2020/12/23 02:55:01;;;;;;;13.78;7.15;;;;;;;3.19;82.64;101827.16;1779347;80;21198;-57
2020/12/23 02:57:29;;;;;;;14.35;7.33;;;;;;;3.19;82.66;101828.49;1779379;80;21084;-56
2020/12/23 02:59:57;;;;;;;15.90;7.80;;;;;;;3.20;82.66;101823.64;1779359;80;21069;-57
2020/12/23 03:02:24;;;;;;;14.68;7.10;;;;;;;3.19;82.82;101825.84;1779448;80;21124;-56
2020/12/23 03:04:54;;;;;;;16.25;7.22;;;;;;;3.17;82.95;101826.26;1779340;80;21383;-56
2020/12/23 03:07:21;;;;;;;12.98;6.87;;;;;;;3.15;83.09;101828.45;1779456;80;21198;-56
2020/12/23 03:09:49;;;;;;;12.53;7.00;;;;;;;3.17;83.37;101823.61;1779383;80;21188;-56
2020/12/23 03:12:16;;;;;;;17.48;7.65;;;;;;;3.19;83.52;101821.86;1779468;80;21192;-56
2020/12/23 03:14:44;;;;;;;15.83;7.65;;;;;;;3.19;83.78;101816.15;1779307;80;21148;-56
2020/12/23 03:17:11;;;;;;;15.85;7.80;;;;;;;3.20;83.91;101819.67;1779394;80;21714;-59
2020/12/23 03:19:41;;;;;;;16.77;7.42;;;;;;;3.21;84.02;101824.13;1779232;80;21191;-56
2020/12/23 03:22:08;;;;;;;15.43;7.83;;;;;;;3.21;84.12;101814.85;1782874;80;21061;-57
2020/12/23 03:24:36;;;;;;;19.95;8.60;;;;;;;3.20;84.31;101814.37;1782874;80;21053;-56
2020/12/23 03:27:03;;;;;;;15.55;8.45;;;;;;;3.20;84.42;101810.39;1782970;80;21119;-56
2020/12/23 03:29:31;;;;;;;19.62;8.93;;;;;;;3.20;84.59;101805.09;1782933;80;21701;-57
2020/12/23 03:31:59;;;;;;;19.15;9.70;;;;;;;3.19;84.75;101800.24;1782909;80;21068;-55
2020/12/23 03:34:26;;;;;;;20.17;8.50;;;;;;;3.15;84.91;101797.98;1782864;80;21084;-56
2020/12/23 03:36:54;;;;;;;17.27;8.25;;;;;;;3.13;85.12;101796.20;1784841;80;21114;-58
2020/12/23 03:39:21;;;;;;;19.12;8.45;;;;;;;3.10;85.31;101800.14;1767149;81;21168;-57
2020/12/23 03:41:49;;;;;;;16.25;8.10;;;;;;;3.06;85.44;101796.55;1798516;79;21412;-57
2020/12/23 03:44:16;;;;;;;15.85;9.23;;;;;;;3.03;85.66;101797.84;1767030;81;21097;-56
2020/12/23 03:46:44;;;;;;;15.35;8.20;;;;;;;2.99;85.95;101796.02;1798481;79;21125;-56
2020/12/23 03:49:12;;;;;;;16.15;8.23;;;;;;;2.98;86.20;101802.16;1767063;81;21157;-56
2020/12/23 03:51:39;;;;;;;16.90;8.55;;;;;;;2.97;86.47;101796.41;1798497;79;21030;-55
2020/12/23 03:54:08;;;;;;;14.68;7.53;;;;;;;2.99;86.58;101793.37;1767037;81;21611;-56
2020/12/23 03:56:35;;;;;;;18.60;7.60;;;;;;;2.98;86.60;101788.91;1798445;79;21149;-56
2020/12/23 03:59:03;;;;;;;15.60;8.23;;;;;;;2.99;86.59;101785.42;1766984;81;21129;-56
2020/12/23 04:01:30;;;;;;;11.35;6.58;;;;;;;3.00;86.58;101780.58;1798466;79;21074;-56
2020/12/23 04:03:58;;;;;;;16.75;6.58;;;;;;;3.01;86.26;101783.69;1767033;81;21046;-56
2020/12/23 04:06:26;;;;;;;15.90;7.45;;;;;;;3.01;86.20;101790.30;1798539;79;21343;-56
2020/12/23 04:08:53;;;;;;;16.48;7.35;;;;;;;3.05;86.19;101793.87;1766879;81;21147;-56
2020/12/23 04:11:21;;;;;;;17.50;7.50;;;;;;;3.07;86.23;101794.36;1798532;79;21050;-56
2020/12/23 04:13:48;;;;;;;11.68;6.70;;;;;;;3.07;86.09;101786.41;1766949;81;21066;-56
2020/12/23 04:16:16;;;;;;;16.67;6.97;;;;;;;3.11;86.08;101788.67;1798585;79;21046;-56
2020/12/23 04:18:44;;;;;;;13.03;7.30;;;;;;;3.13;86.09;101792.23;1766967;81;21386;-56
2020/12/23 04:21:11;;;;;;;14.63;7.25;;;;;;;3.14;86.14;101782.95;1798411;79;21217;-56
2020/12/23 04:23:39;;;;;;;16.37;7.47;;;;;;;3.18;86.34;101788.28;1767034;81;21073;-55
2020/12/23 04:26:07;;;;;;;15.50;7.72;;;;;;;3.20;86.38;101789.19;1798589;79;21157;-56
2020/12/23 04:28:36;;;;;;;15.53;7.17;;;;;;;3.20;86.32;101777.27;1767009;81;21204;-56
2020/12/23 04:31:04;;;;;;;13.55;7.15;;;;;;;3.20;86.40;101781.23;1798504;79;21203;-56
2020/12/23 04:33:32;;;;;;;14.10;6.65;;;;;;;3.20;86.48;101778.17;1766928;81;22123;-56
2020/12/23 04:36:00;;;;;;;16.50;6.92;;;;;;;3.20;86.55;101780.81;1798530;79;21058;-57
2020/12/23 04:38:27;;;;;;;17.52;6.72;;;;;;;3.20;86.39;101777.27;1767038;81;20926;-57
2020/12/23 04:40:56;;;;;;;15.25;7.00;;;;;;;3.19;86.36;101774.16;1766865;81;21087;-56
2020/12/23 04:43:23;;;;;;;10.78;5.97;;;;;;;3.19;86.66;101770.18;1772029;79;21527;-56
2020/12/23 04:45:51;;;;;;;11.57;6.30;;;;;;;3.21;86.70;101779.95;1765271;81;21209;-56
2020/12/23 04:48:26;;;;;;;12.68;6.37;;;;;;;3.24;86.67;101773.80;1715248;81;21054;-56
2020/12/23 04:50:55;;;;;;;12.98;6.42;;;;;;;3.28;86.53;101763.69;1798566;79;22155;-56
2020/12/23 04:53:23;;;;;;;12.37;6.92;;;;;;;3.29;86.48;101767.66;1767074;81;21084;-56
2020/12/23 04:55:51;;;;;;;11.75;6.10;;;;;;;3.32;86.45;101772.13;1798641;79;21342;-56
2020/12/23 04:58:18;;;;;;;9.45;5.37;;;;;;;3.34;86.28;101773.02;1765449;81;21533;-56
2020/12/23 05:00:45;;;;;;;15.25;5.92;;;;;;;3.39;86.23;101770.44;1798550;79;21199;-55
2020/12/23 05:03:13;;;;;;;13.62;6.45;;;;;;;3.42;86.03;101766.03;1765323;81;21217;-55
2020/12/23 05:05:41;;;;;;;12.85;6.10;;;;;;;3.48;85.75;101764.34;1798526;79;21085;-55
2020/12/23 05:08:09;;;;;;;13.10;6.50;;;;;;;3.50;85.56;101762.14;1765301;81;21472;-57
2020/12/23 05:10:37;;;;;;;14.50;6.58;;;;;;;3.54;85.40;101757.77;1798505;79;21015;-56
2020/12/23 05:13:05;;;;;;;12.43;5.85;;;;;;;3.53;85.53;101748.91;1765240;81;21133;-56
2020/12/23 05:15:34;;;;;;;10.58;5.28;;;;;;;3.54;85.28;101756.03;1798484;79;21119;-56
2020/12/23 05:18:02;;;;;;;12.20;5.72;;;;;;;3.54;84.94;101760.42;1765295;81;21189;-56
2020/12/23 05:20:29;;;;;;;11.85;6.28;;;;;;;3.55;84.80;101760.45;1798351;79;21190;-56
2020/12/23 05:22:57;;;;;;;12.73;6.03;;;;;;;3.58;84.92;101762.23;1762182;81;21082;-55
2020/12/23 05:25:27;;;;;;;13.53;6.30;;;;;;;3.60;85.08;101751.20;1734923;81;21123;-56
2020/12/23 05:27:54;;;;;;;13.20;6.12;;;;;;;3.62;85.25;101747.25;1795322;80;21109;-56
2020/12/23 05:30:22;;;;;;;10.63;6.05;;;;;;;3.61;85.30;101751.65;1710819;81;21149;-56
2020/12/23 05:32:50;;;;;;;10.00;5.33;;;;;;;3.61;85.40;101749.00;1795446;80;21208;-56
2020/12/23 05:35:18;;;;;;;15.55;5.92;;;;;;;3.62;85.37;101753.88;1710777;81;21082;-56
2020/12/23 05:37:45;;;;;;;12.13;5.95;;;;;;;3.64;85.18;101754.33;1818888;78;21102;-56
2020/12/23 05:40:13;;;;;;;12.13;6.20;;;;;;;3.67;85.10;101749.50;1827849;78;21145;-57
2020/12/23 05:42:40;;;;;;;11.30;5.47;;;;;;;3.68;84.74;101749.53;1795434;80;21058;-56
2020/12/23 05:45:09;;;;;;;11.50;5.85;;;;;;;3.69;84.64;101757.94;1827642;78;21664;-56
2020/12/23 05:47:37;;;;;;;10.85;5.22;;;;;;;3.68;84.78;101757.48;1827998;78;21486;-56
2020/12/23 05:50:09;;;;;;;11.50;6.30;;;;;;;3.69;84.81;101765.89;1795360;80;21114;-56
2020/12/23 05:52:37;;;;;;;15.00;7.03;;;;;;;3.71;84.82;101768.13;1827954;78;21514;-57
2020/12/23 05:55:16;;;;;;;11.45;5.85;;;;;;;3.77;84.35;101771.70;1795370;80;21145;-57
2020/12/23 05:57:44;;;;;;;14.07;6.62;;;;;;;3.81;84.28;101777.06;1827889;78;21369;-56
2020/12/23 06:00:12;;;;;;;10.58;6.28;;;;;;;3.84;84.45;101777.51;1795300;80;21204;-56
2020/12/23 06:02:57;;;;;;;10.25;5.22;;;;;;;3.87;84.35;101790.84;1827926;78;21517;-56
2020/12/23 06:05:28;;;;;;;14.38;5.55;;;;;;;3.86;84.30;101791.25;1794824;80;26512;-56
2020/12/23 06:07:57;;;;;;;11.97;6.08;;;;;;;3.90;84.21;101792.19;1827908;78;21086;-57
2020/12/23 06:10:25;;;;;;;13.85;6.35;;;;;;;3.93;84.20;101798.84;1795494;80;21203;-57
2020/12/23 06:12:55;;;;;;;11.48;6.45;;;;;;;3.97;84.24;101799.31;1827815;78;21156;-57
2020/12/23 06:15:28;;;;;;;12.60;6.65;;;;;;;4.00;84.13;101799.34;1795328;80;21105;-57
2020/12/23 06:17:57;;;;;;;12.07;6.60;;;;;;;4.03;84.07;101794.93;1827938;78;21140;-56
2020/12/23 06:20:26;;;;;;;11.95;6.10;;;;;;;4.06;83.94;101794.95;1795389;80;21065;-57
2020/12/23 06:22:54;;;;;;;13.48;7.45;;;;;;;4.09;83.88;101788.34;1827832;78;21705;-56
2020/12/23 06:25:22;;;;;;;12.85;6.25;;;;;;;4.14;83.66;101791.50;1795316;79;21200;-57
2020/12/23 06:27:52;;;;;;;12.13;6.47;;;;;;;4.19;83.31;101791.55;1828119;78;21077;-55
2020/12/23 06:30:20;;;;;;;10.10;5.90;;;;;;;4.24;82.97;101785.83;1795519;80;21045;-56
2020/12/23 06:32:49;;;;;;;10.32;5.60;;;;;;;4.29;82.70;101787.20;1828160;78;21161;-56
2020/12/23 06:35:20;;;;;;;9.83;6.22;;;;;;;4.33;82.43;101796.95;1795459;80;21368;-57
2020/12/23 06:37:47;;;;;;;11.43;5.45;;;;;;;4.36;82.12;101797.44;1766905;80;21172;-56
2020/12/23 06:40:16;;;;;;;8.88;5.35;;;;;;;4.37;81.97;101789.91;1827956;78;21110;-55
2020/12/23 06:42:47;;;;;;;9.75;5.65;;;;;;;4.40;81.72;101797.91;1828082;78;21130;-57
2020/12/23 06:45:14;;;;;;;10.60;5.83;;;;;;;4.44;81.50;101803.26;1793860;80;21114;-57
2020/12/23 06:47:42;;;;;;;14.95;6.03;;;;;;;4.46;81.25;101797.06;1795464;80;21348;-57
2020/12/23 06:50:27;;;;;;;9.63;5.90;;;;;;;4.46;81.05;101792.63;1790976;80;21066;-57
2020/12/23 06:52:55;;;;;;;14.78;5.15;;;;;;;4.46;81.00;101795.28;1795736;80;21125;-56
2020/12/23 06:55:32;;;;;;;10.10;5.50;;;;;;;4.44;80.60;101789.08;1793814;80;21117;-56
2020/12/23 06:57:59;;;;;;;12.30;5.62;;;;;;;4.44;80.67;101791.73;1791971;80;21513;-55
2020/12/23 07:00:34;;;;;;;10.78;6.03;;;;;;;4.46;80.75;101781.12;1793881;80;21275;-56
2020/12/23 07:03:05;;;;;;;9.85;5.15;;;;;;;4.50;80.90;101782.92;1795537;80;21132;-57
2020/12/23 07:05:39;;;;;;;9.73;5.90;;;;;;;4.53;80.77;101786.92;1793871;80;21117;-56
2020/12/23 07:08:12;;;;;;;9.58;5.45;;;;;;;4.54;80.60;101784.72;1795724;80;21466;-55
2020/12/23 07:10:49;;;;;;;9.25;5.30;;;;;;;4.53;80.41;101789.16;1795440;80;21108;-56
2020/12/23 07:13:21;;;;;;;11.45;5.33;;;;;;;4.52;80.44;101788.67;1795462;80;21373;-56
2020/12/23 07:15:54;;;;;;;7.50;4.83;;;;;;;4.53;80.49;101778.53;1827921;78;21482;-56
2020/12/23 07:18:28;;;;;;;9.63;5.12;;;;;;;4.56;80.43;101774.56;1793796;80;21185;-56
2020/12/23 07:21:02;;;;;;;17.95;5.05;;;;;;;4.61;80.26;101780.34;1795052;80;21161;-56
2020/12/23 07:23:31;;;;;;;7.28;4.75;;;;;;;4.64;80.27;101780.35;1795792;80;21056;-55
2020/12/23 07:26:06;;;;;;;10.20;5.50;;;;;;;4.66;80.11;101777.27;1827961;78;21195;-57
2020/12/23 07:28:38;;;;;;;8.50;4.87;;;;;;;4.67;80.20;101782.60;1793723;80;21596;-56
2020/12/23 07:31:06;;;;;;;8.30;4.80;;;;;;;4.70;80.36;101796.33;1795451;80;21125;-56
2020/12/23 07:33:37;;;;;;;10.72;5.62;;;;;;;4.73;80.46;101794.58;1793710;80;21141;-56
2020/12/23 07:36:06;;;;;;;9.58;5.83;;;;;;;4.80;80.58;101795.52;1794544;79;21146;-56
2020/12/23 07:38:36;;;;;;;8.40;5.12;;;;;;;4.85;80.35;101797.75;1758977;81;21538;-56
2020/12/23 07:41:03;;;;;;;10.85;4.87;;;;;;;4.88;80.07;101799.55;1760698;81;21512;-56
2020/12/23 07:43:31;;;;;;;9.08;4.83;;;;;;;4.87;79.84;101797.31;1760479;81;21189;-57
2020/12/23 07:45:58;;;;;;;10.55;4.30;;;;;;;4.90;79.80;101798.21;1760536;81;21150;-56
2020/12/23 07:48:29;;;;;;;7.28;4.28;;;;;;;4.87;79.84;101807.95;1760518;81;21114;-56
2020/12/23 07:50:57;;;;;;;7.62;4.37;;;;;;;4.87;79.75;101802.63;1760571;81;22239;-56
2020/12/23 07:53:26;;;;;;;7.87;4.70;;;;;;;4.90;79.59;101806.19;1760469;81;21538;-57
2020/12/23 07:56:02;;;;;;;11.45;5.10;;;;;;;4.91;79.52;101802.64;1760422;81;21046;-57
2020/12/23 07:58:30;;;;;;;8.60;4.50;;;;;;;4.91;79.45;101803.97;1760638;81;21495;-56
2020/12/23 08:00:58;;;;;;;10.32;4.90;;;;;;;4.92;79.36;101794.70;1760426;81;21078;-56
2020/12/23 08:03:27;;;;;;;10.48;4.95;;;;;;;4.92;79.32;101793.79;1760522;81;21414;-56
2020/12/23 08:06:07;;;;;;;10.05;4.90;;;;;;;4.95;79.36;101795.13;1760539;81;21487;-56
2020/12/23 08:08:35;;;;;;;8.98;4.70;;;;;;;4.99;79.40;101782.33;1760521;81;21126;-56
2020/12/23 08:11:16;;;;;;;7.17;4.22;;;;;;;5.07;79.40;101787.66;1760420;81;21133;-56
2020/12/23 08:13:43;;;;;;;11.22;5.40;;;;;;;5.13;79.32;101774.41;1760495;81;21113;-56
2020/12/23 08:16:15;;;;;;;8.38;4.70;;;;;;;5.19;79.22;101778.84;1760475;81;21423;-56
2020/12/23 08:18:44;;;;;;;8.43;4.95;;;;;;;5.23;79.06;101778.00;1760445;81;21141;-55
2020/12/23 08:21:16;;;;;;;8.03;4.50;;;;;;;5.24;78.93;101785.09;1760566;81;21629;-56
2020/12/23 08:23:49;;;;;;;11.38;4.45;;;;;;;5.25;79.06;101778.89;1760449;81;22330;-55
2020/12/23 08:26:16;;;;;;;7.20;4.47;;;;;;;5.26;79.19;101779.34;1760592;81;21162;-56
2020/12/23 08:28:47;;;;;;;11.03;5.12;;;;;;;5.27;79.25;101779.32;1760437;81;21207;-57
2020/12/23 08:31:31;;;;;;;11.57;4.65;;;;;;;5.30;79.10;101770.48;1760490;81;21193;-56
2020/12/23 08:34:00;;;;;;;7.47;4.90;;;;;;;5.33;78.91;101760.30;1760471;81;21177;-57
2020/12/23 08:36:30;;;;;;;11.00;5.05;;;;;;;5.34;78.89;101754.97;1760109;81;21066;-57
2020/12/23 08:38:57;;;;;;;8.13;4.47;;;;;;;5.35;79.08;101747.44;1785894;80;21074;-56
2020/12/23 08:41:26;;;;;;;10.43;4.45;;;;;;;5.37;79.45;101744.34;1785838;80;21188;-56
2020/12/23 08:43:53;;;;;;;11.28;4.95;;;;;;;5.42;79.73;101747.92;1785410;80;21129;-57
2020/12/23 08:46:26;;;;;;;10.68;5.10;;;;;;;5.45;79.92;101751.91;1785810;80;21161;-57
2020/12/23 08:48:55;;;;;;;7.75;4.60;;;;;;;5.49;79.93;101745.27;1785894;80;21146;-56
2020/12/23 08:51:25;;;;;;;12.05;4.78;;;;;;;5.50;79.83;101737.73;1785944;80;21157;-56
2020/12/23 08:53:54;;;;;;;11.22;5.12;;;;;;;5.49;79.82;101730.18;1785920;80;21688;-56
2020/12/23 08:56:29;;;;;;;12.03;4.67;;;;;;;5.48;79.95;101722.22;1785730;80;21154;-56
2020/12/23 08:59:00;;;;;;;8.98;4.47;;;;;;;5.49;80.23;101721.33;1785909;80;21060;-56
2020/12/23 09:01:29;;;;;;;10.95;4.53;;;;;;;5.52;80.38;101723.98;1785845;80;21058;-57
2020/12/23 09:04:07;;;;;;;11.45;5.03;;;;;;;5.55;80.49;101711.59;1785877;80;21050;-56
2020/12/23 09:06:36;;;;;;;11.65;5.17;;;;;;;5.60;80.53;101706.25;1785951;80;21126;-56
2020/12/23 09:09:17;;;;;;;9.78;4.70;;;;;;;5.64;80.52;101700.08;1785746;80;21130;-56
2020/12/23 09:11:51;;;;;;;13.43;4.95;;;;;;;5.72;80.02;101698.30;1785941;80;21130;-56
2020/12/23 09:14:37;;;;;;;10.53;5.20;;;;;;;5.82;79.51;101695.63;1786072;80;21070;-56
2020/12/23 09:19:53;;;;;;;8.87;4.80;;;;;;;6.02;78.50;101683.22;1889555;76;22664;-56
2020/12/23 09:22:40;;;;;;;13.00;4.78;;;;;;;6.01;77.95;101683.24;1860375;77;20965;-57
2020/12/23 09:25:20;;;;;;;8.03;4.78;;;;;;;6.04;77.66;101688.98;1860556;77;21480;-55
2020/12/23 09:27:52;;;;;;;8.68;5.03;;;;;;;6.02;77.64;101695.20;1860377;77;21329;-55
2020/12/23 09:30:48;;;;;;;19.77;5.08;;;;;;;6.04;77.68;101691.65;1860528;77;21568;-56
2020/12/23 09:33:20;;;;;;;9.28;4.22;;;;;;;6.05;77.84;101673.45;1860470;77;20925;-56
2020/12/23 09:35:51;;;;;;;9.88;4.95;;;;;;;6.06;77.90;101673.47;1860269;77;21069;-56
2020/12/23 09:38:24;;;;;;;9.75;6.03;;;;;;;6.10;77.66;101685.02;1857577;77;21326;-55
2020/12/23 09:40:55;;;;;;;12.30;5.03;;;;;;;6.10;77.19;101677.02;1860270;77;20937;-56
2020/12/23 09:43:26;;;;;;;10.50;4.85;;;;;;;6.10;76.51;101677.02;1860092;77;21016;-56
2020/12/23 09:45:55;;;;;;;11.75;4.78;;;;;;;6.10;76.20;101681.02;1860272;77;21107;-55
2020/12/23 09:48:24;;;;;;;6.83;4.33;;;;;;;6.09;76.13;101677.45;1860332;77;21107;-55
2020/12/23 09:50:56;;;;;;;10.45;4.05;;;;;;;6.08;76.07;101666.36;1860297;77;21419;-56
2020/12/23 09:53:26;;;;;;;6.50;3.85;;;;;;;6.08;76.14;101670.78;1859775;77;21485;-55
2020/12/23 09:55:55;;;;;;;6.05;4.10;;;;;;;6.08;76.13;101657.47;1860296;77;20932;-56
2020/12/23 09:58:23;;;;;;;10.30;4.70;;;;;;;6.08;76.00;101665.03;1860198;77;20996;-55
2020/12/23 10:00:55;;;;;;;5.40;3.80;;;;;;;6.11;75.86;101653.04;1860451;77;21155;-55
2020/12/23 10:03:20;;;;;;;9.20;3.95;;;;;;;6.10;75.81;101655.72;1859928;77;21540;-55
2020/12/23 10:05:48;;;;;;;11.12;4.60;;;;;;;6.02;75.83;101644.62;1860406;77;21063;-56
2020/12/23 10:08:16;;;;;;;8.40;4.22;;;;;;;6.02;75.83;101644.62;1860292;77;21055;-56
2020/12/23 10:10:43;;;;;;;7.87;4.08;;;;;;;6.01;76.19;101645.97;1860289;77;21093;-56
2020/12/23 10:13:11;;;;;;;8.70;4.05;;;;;;;6.01;76.21;101642.84;1860320;77;21146;-57
2020/12/23 10:15:39;;;;;;;7.95;3.90;;;;;;;6.05;76.05;101646.83;1860402;77;21433;-55
2020/12/23 10:18:06;;;;;;;8.60;4.58;;;;;;;6.09;75.96;101645.96;1860144;77;21067;-56
2020/12/23 10:20:34;;;;;;;11.43;5.00;;;;;;;6.10;75.89;101639.75;1860344;77;21091;-56
2020/12/23 10:23:01;;;;;;;7.65;4.47;;;;;;;6.07;75.83;101637.97;1860232;77;21449;-55
2020/12/23 10:25:30;;;;;;;7.75;4.30;;;;;;;6.08;76.20;101636.17;1860418;77;21052;-55
2020/12/23 10:27:57;;;;;;;11.65;4.65;;;;;;;6.07;76.29;101631.31;1827382;77;22345;-56
2020/12/23 10:30:25;;;;;;;6.42;4.00;;;;;;;6.06;76.19;101633.53;1859866;77;20937;-56
2020/12/23 10:32:54;;;;;;;9.03;4.15;;;;;;;6.08;75.96;101633.50;1855657;77;21167;-56
2020/12/23 10:35:21;;;;;;;7.78;4.00;;;;;;;6.06;75.86;101628.63;1859751;77;21174;-56
2020/12/23 10:37:49;;;;;;;6.60;4.28;;;;;;;6.02;76.19;101621.13;1837355;77;21597;-56
2020/12/23 10:40:16;;;;;;;8.10;4.75;;;;;;;5.98;76.26;101620.20;1829471;78;21167;-56
2020/12/23 10:42:45;;;;;;;9.73;4.00;;;;;;;5.94;76.62;101621.52;1829486;78;21196;-56
2020/12/23 10:45:12;;;;;;;9.55;4.37;;;;;;;5.91;76.73;101609.55;1829435;78;21211;-56
2020/12/23 10:47:40;;;;;;;11.30;4.83;;;;;;;5.90;77.00;101615.77;1829540;78;21158;-55
2020/12/23 10:50:08;;;;;;;12.78;4.92;;;;;;;5.86;77.37;101607.80;1829494;78;21094;-57
2020/12/23 10:52:36;;;;;;;8.95;4.33;;;;;;;5.84;77.69;101610.91;1829511;78;21371;-55
2020/12/23 10:55:04;;;;;;;9.43;4.62;;;;;;;5.83;77.91;101597.16;1829497;78;21098;-56
2020/12/23 10:57:33;;;;;;;8.78;4.00;;;;;;;5.80;77.70;101593.17;1829440;78;20987;-55
2020/12/23 11:00:00;;;;;;;9.18;4.05;;;;;;;5.80;77.70;101593.17;1829510;78;21165;-56
2020/12/23 11:02:28;;;;;;;9.55;4.28;;;;;;;5.81;77.88;101595.38;1829479;78;21043;-55
2020/12/23 11:04:56;;;;;;;10.23;4.45;;;;;;;5.84;77.97;101590.05;1829532;78;21684;-55
2020/12/23 11:07:24;;;;;;;8.63;4.22;;;;;;;5.84;78.03;101590.05;1829364;78;20967;-55
2020/12/23 11:09:51;;;;;;;8.90;4.30;;;;;;;5.82;78.10;101590.06;1829554;78;21013;-56
2020/12/23 11:12:19;;;;;;;9.38;4.30;;;;;;;5.82;78.30;101587.83;1829398;78;21042;-55
2020/12/23 11:14:49;;;;;;;9.73;4.30;;;;;;;5.80;78.56;101588.28;1829610;78;20936;-56
2020/12/23 11:17:17;;;;;;;8.40;4.65;;;;;;;5.79;79.00;101591.41;1829610;78;22194;-56
2020/12/23 11:19:45;;;;;;;11.95;4.90;;;;;;;5.79;80.45;101594.49;1829293;76;21059;-57
2020/12/23 11:22:12;;;;;;;10.20;5.85;;;;;;;5.79;80.45;101594.49;1825828;78;21107;-56
2020/12/23 11:24:41;;;;;;;8.68;5.53;;;;;;;5.76;81.21;101595.83;1849529;77;21365;-56
2020/12/23 11:27:09;;;;;;;10.03;5.40;;;;;;;5.72;82.05;101594.94;1859579;77;21509;-56
2020/12/23 11:29:36;;;;;;;7.72;4.55;;;;;;;5.67;82.86;101585.66;1859569;77;21357;-57
2020/12/23 11:32:03;;;;;;;8.40;4.65;;;;;;;5.64;83.74;101588.33;1859510;77;21044;-55
2020/12/23 11:34:31;;;;;;;11.35;5.60;;;;;;;5.62;84.20;101590.07;1803466;78;21193;-56
2020/12/23 11:37:00;;;;;;;12.95;5.20;;;;;;;5.61;84.94;101569.67;1756465;81;20986;-58
2020/12/23 11:39:28;;;;;;;7.83;5.33;;;;;;;5.57;85.33;101579.45;1790601;79;21139;-57
2020/12/23 11:41:56;;;;;;;8.90;5.87;;;;;;;5.54;85.60;101575.91;1784409;79;23595;-56